Time;durP1;ratioP1;P1;durP2;ratioP2;P2;SDS_P1;SDS_P2;PMS_P1;PMS_P2;Temp;Humidity;BMP_temperature;BMP_pressure;BME280_temperature;BME280_humidity;BME280_pressure;Samples;Min_cycle;Max_cycle;Signal;HPM_P1;HPM_P2
2023/06/09 00:01:13;;;;;;;7.20;5.80;;;15.10;99.90;;;13.85;100.00;97424.09;5038317;28;20777;-71
2023/06/09 00:03:40;;;;;;;8.68;6.60;;;15.10;99.90;;;13.67;100.00;97420.78;5039095;28;20142;-71
2023/06/09 00:06:08;;;;;;;7.57;5.88;;;14.90;99.90;;;13.62;100.00;97426.25;5035996;28;20053;-71
2023/06/09 00:08:36;;;;;;;8.13;6.32;;;14.90;99.90;;;13.63;100.00;97433.13;5036199;28;20050;-71
2023/06/09 00:11:03;;;;;;;9.30;6.22;;;14.80;99.90;;;13.57;100.00;97425.66;5036414;28;20176;-70
2023/06/09 00:13:31;;;;;;;7.10;6.10;;;14.70;99.90;;;13.54;100.00;97418.00;5052230;28;20049;-71
2023/06/09 00:15:58;;;;;;;7.90;6.13;;;14.70;99.90;;;13.67;100.00;97432.03;5036032;28;20056;-74
2023/06/09 00:18:25;;;;;;;8.65;6.00;;;14.70;99.90;;;13.64;100.00;97427.00;5042216;28;20473;-70
2023/06/09 00:20:53;;;;;;;8.18;6.25;;;14.70;99.90;;;13.58;100.00;97429.97;5034785;28;20386;-70
2023/06/09 00:23:20;;;;;;;7.47;6.35;;;14.70;99.90;;;13.60;100.00;97426.34;5037310;28;20049;-71
2023/06/09 00:25:47;;;;;;;7.78;6.22;;;14.70;99.90;;;13.60;100.00;97431.53;5041426;28;20052;-71
2023/06/09 00:28:14;;;;;;;8.02;6.43;;;14.70;99.90;;;13.61;100.00;97421.94;5066155;28;20081;-70
2023/06/09 00:30:41;;;;;;;9.70;7.20;;;14.70;99.90;;;13.47;100.00;97427.94;5034672;28;20876;-70
2023/06/09 00:33:08;;;;;;;10.60;6.55;;;14.70;99.90;;;13.28;100.00;97419.50;5034420;28;20053;-71
2023/06/09 00:35:35;;;;;;;7.85;6.72;;;14.60;99.90;;;13.17;100.00;97420.06;5040356;28;20159;-70
2023/06/09 00:38:03;;;;;;;10.23;6.07;;;14.50;99.90;;;13.26;100.00;97421.31;5036841;28;20146;-70
2023/06/09 00:40:30;;;;;;;6.72;5.72;;;14.40;99.90;;;13.17;100.00;97428.72;5037556;28;20144;-70
2023/06/09 00:42:57;;;;;;;8.55;6.28;;;14.40;99.90;;;13.11;100.00;97434.28;5015531;28;20128;-70
2023/06/09 00:45:24;;;;;;;7.50;5.93;;;14.30;99.90;;;12.91;100.00;97437.13;5038550;28;20065;-70
2023/06/09 00:47:52;;;;;;;7.65;5.88;;;14.30;99.90;;;12.82;100.00;97435.88;5037057;28;20517;-72
2023/06/09 00:50:20;;;;;;;8.98;6.30;;;14.10;99.90;;;12.84;100.00;97439.22;5035854;28;20057;-70
2023/06/09 00:52:48;;;;;;;9.25;5.68;;;14.00;99.90;;;12.79;100.00;97445.59;5035845;28;20072;-70
2023/06/09 00:55:17;;;;;;;8.43;6.28;;;14.00;99.90;;;12.68;100.00;97454.84;5041237;28;20049;-70
2023/06/09 00:57:46;;;;;;;8.52;5.95;;;13.90;99.90;;;12.58;100.00;97445.81;5035108;28;20049;-71
2023/06/09 01:00:16;;;;;;;7.63;6.30;;;13.90;99.90;;;12.62;100.00;97443.91;5040518;28;20140;-70
2023/06/09 01:02:44;;;;;;;8.82;6.00;;;13.70;99.90;;;12.57;100.00;97449.34;5036462;28;20060;-70
2023/06/09 01:05:12;;;;;;;8.27;6.00;;;13.70;99.90;;;12.62;100.00;97454.31;5038694;28;20050;-70
2023/06/09 01:07:54;;;;;;;8.55;6.60;;;13.70;99.90;;;12.74;100.00;97451.03;5032459;28;20128;-71
2023/06/09 01:10:25;;;;;;;7.30;5.87;;;13.80;99.90;;;12.62;100.00;97455.16;5032788;28;20053;-71
2023/06/09 01:13:03;;;;;;;8.32;6.32;;;13.80;99.90;;;12.65;100.00;97447.16;5052452;28;20945;-71
2023/06/09 01:15:43;;;;;;;7.20;6.13;;;13.80;99.90;;;12.66;100.00;97446.25;5042780;28;20060;-72
2023/06/09 01:18:14;;;;;;;13.38;6.25;;;13.80;99.90;;;12.65;100.00;97448.94;5048493;28;20514;-71
2023/06/09 01:20:45;;;;;;;10.35;6.55;;;13.80;99.90;;;12.65;100.00;97456.75;5040854;28;20076;-71
2023/06/09 01:23:40;;;;;;;8.05;6.05;;;13.80;99.90;;;12.56;100.00;97463.28;5034821;28;20132;-71
2023/06/09 01:26:08;;;;;;;8.73;6.20;;;13.80;99.90;;;12.63;100.00;97453.38;5034160;28;20051;-71
2023/06/09 01:28:38;;;;;;;8.48;6.57;;;13.70;99.90;;;12.67;100.00;97462.72;5033594;28;20049;-71
2023/06/09 01:31:05;;;;;;;8.98;7.05;;;13.80;99.90;;;12.66;100.00;97453.25;5033321;28;20715;-70
2023/06/09 01:33:33;;;;;;;8.18;6.53;;;13.80;99.90;;;12.79;100.00;97458.63;5036693;28;20505;-71
2023/06/09 01:36:00;;;;;;;8.50;6.43;;;13.80;99.90;;;12.73;100.00;97454.59;5037481;28;20049;-70
2023/06/09 01:38:28;;;;;;;7.80;6.68;;;13.80;99.90;;;12.70;100.00;97447.78;5041349;28;20133;-70
2023/06/09 01:40:58;;;;;;;9.57;6.72;;;13.80;99.90;;;12.73;100.00;97455.41;5021882;28;20461;-70
2023/06/09 01:43:25;;;;;;;8.95;6.78;;;13.80;99.90;;;12.78;100.00;97460.38;5051399;28;20589;-70
2023/06/09 01:45:52;;;;;;;9.25;6.80;;;13.90;99.90;;;12.77;100.00;97451.75;5036662;28;20148;-70
2023/06/09 01:48:47;;;;;;;9.02;7.07;;;13.80;99.90;;;12.91;100.00;97456.19;5036860;28;20044;-70
2023/06/09 01:51:26;;;;;;;9.00;6.65;;;13.90;99.90;;;13.04;100.00;97450.31;5052364;28;20437;-70
2023/06/09 01:54:04;;;;;;;9.20;7.22;;;14.00;99.90;;;13.08;100.00;97444.84;5036808;28;20049;-71
2023/06/09 01:56:40;;;;;;;8.18;6.95;;;14.00;99.90;;;13.15;100.00;97448.81;5048886;28;20057;-71
2023/06/09 01:59:13;;;;;;;11.27;7.57;;;14.10;99.90;;;13.08;100.00;97444.03;5038386;28;20072;-70
2023/06/09 02:01:43;;;;;;;9.43;7.57;;;14.20;99.90;;;13.03;100.00;97454.69;5031354;28;20061;-70
2023/06/09 02:04:13;;;;;;;9.23;7.32;;;14.20;99.90;;;12.92;100.00;97455.28;5049540;28;20422;-71
2023/06/09 02:06:42;;;;;;;8.95;6.90;;;14.20;99.90;;;12.91;100.00;97456.19;5050966;28;20070;-70
2023/06/09 02:09:10;;;;;;;10.05;7.18;;;14.10;99.90;;;12.92;100.00;97446.63;5035792;28;20049;-71
2023/06/09 02:11:37;;;;;;;10.00;8.13;;;14.10;99.90;;;12.88;100.00;97447.69;5033460;28;21147;-71
2023/06/09 02:14:04;;;;;;;9.32;7.10;;;14.10;99.90;;;12.88;100.00;97461.56;5030270;28;20044;-70
2023/06/09 02:16:34;;;;;;;10.25;7.53;;;14.00;99.90;;;12.80;100.00;97455.09;5034570;28;20049;-70
2023/06/09 02:19:03;;;;;;;9.68;7.10;;;14.00;99.90;;;12.83;100.00;97457.53;5036131;28;20067;-70
2023/06/09 02:21:30;;;;;;;9.30;8.07;;;14.00;99.90;;;12.82;100.00;97451.50;5044695;28;20501;-70
2023/06/09 02:23:57;;;;;;;9.85;7.53;;;13.90;99.90;;;12.85;100.00;97460.91;5035499;28;20123;-71
2023/06/09 02:26:24;;;;;;;9.18;7.93;;;13.90;99.90;;;12.73;100.00;97458.03;5032976;28;20061;-70
2023/06/09 02:28:54;;;;;;;9.27;7.47;;;13.90;99.90;;;12.79;100.00;97472.47;5064525;28;20121;-70
2023/06/09 02:31:22;;;;;;;8.75;7.45;;;13.90;99.90;;;12.89;100.00;97472.84;5046181;28;20156;-70
2023/06/09 02:33:49;;;;;;;11.73;7.00;;;13.90;99.90;;;12.87;100.00;97469.47;5051641;28;20056;-70
2023/06/09 02:36:16;;;;;;;9.63;7.53;;;14.00;99.90;;;12.90;100.00;97474.50;5031951;28;20073;-70
2023/06/09 02:38:43;;;;;;;10.32;8.25;;;14.00;99.90;;;13.05;100.00;97470.25;5037393;28;20057;-70
2023/06/09 02:41:10;;;;;;;10.75;8.18;;;14.00;99.90;;;13.03;100.00;97469.50;5036740;28;20586;-71
2023/06/09 02:43:37;;;;;;;9.82;8.05;;;14.00;99.90;;;13.04;100.00;97476.38;5034549;28;20130;-70
2023/06/09 02:46:04;;;;;;;10.07;8.32;;;14.00;99.90;;;13.09;100.00;97477.81;5039263;28;20046;-70
2023/06/09 02:48:32;;;;;;;10.90;8.52;;;14.00;99.90;;;13.10;100.00;97473.44;5062521;28;20575;-70
2023/06/09 02:50:59;;;;;;;10.65;7.82;;;14.00;99.90;;;13.11;100.00;97475.13;5032772;28;20050;-70
2023/06/09 02:53:28;;;;;;;9.57;8.30;;;14.10;99.90;;;13.14;100.00;97473.19;5034161;28;20129;-70
2023/06/09 02:55:55;;;;;;;9.45;8.10;;;14.10;99.90;;;13.17;100.00;97473.00;5033389;28;20050;-70
2023/06/09 02:58:24;;;;;;;9.60;7.97;;;14.10;99.90;;;13.20;100.00;97482.44;5037550;28;20053;-71
2023/06/09 03:00:51;;;;;;;17.00;8.68;;;14.10;99.90;;;13.15;100.00;97472.25;5040540;28;20076;-70
2023/06/09 03:03:19;;;;;;;9.48;8.48;;;14.10;99.90;;;13.06;100.00;97470.16;5052369;28;20049;-70
2023/06/09 03:05:47;;;;;;;10.80;8.88;;;14.10;99.90;;;13.16;100.00;97471.34;5037614;28;20099;-70
2023/06/09 03:08:14;;;;;;;11.85;8.23;;;14.10;99.90;;;13.07;100.00;97479.66;5035163;28;20053;-70
2023/06/09 03:10:41;;;;;;;12.15;9.18;;;14.10;99.90;;;13.00;100.00;97482.66;5037617;28;20067;-70
2023/06/09 03:13:08;;;;;;;10.50;8.88;;;14.10;99.90;;;12.96;100.00;97480.25;5032972;28;20779;-70
2023/06/09 03:15:40;;;;;;;13.20;9.23;;;14.00;99.90;;;13.03;100.00;97485.97;5052952;28;20049;-70
2023/06/09 03:18:07;;;;;;;11.45;10.25;;;14.00;99.90;;;13.04;100.00;97492.00;5036084;28;20506;-71
2023/06/09 03:20:37;;;;;;;10.50;9.40;;;14.00;99.90;;;12.98;100.00;97491.41;5054171;28;20037;-71
2023/06/09 03:23:04;;;;;;;11.30;10.20;;;14.00;99.90;;;13.06;100.00;97501.41;5047020;28;20099;-71
2023/06/09 03:25:31;;;;;;;12.20;10.25;;;14.00;99.90;;;13.03;100.00;97499.00;5035360;28;20107;-71
2023/06/09 03:27:58;;;;;;;12.48;9.95;;;14.00;99.90;;;13.03;100.00;97496.38;5036677;28;20492;-70
2023/06/09 03:30:25;;;;;;;12.90;10.82;;;14.00;99.90;;;12.94;100.00;97502.09;5035530;28;20095;-71
2023/06/09 03:32:52;;;;;;;11.85;10.48;;;14.00;99.90;;;13.01;100.00;97508.66;5037795;28;20140;-71
2023/06/09 03:35:20;;;;;;;12.93;10.90;;;13.90;99.90;;;12.95;100.00;97504.63;5045856;28;20055;-71
2023/06/09 03:37:47;;;;;;;11.95;10.50;;;13.90;99.90;;;12.98;100.00;97507.06;5039357;28;20505;-71
2023/06/09 03:40:15;;;;;;;12.95;9.95;;;14.00;99.90;;;12.85;100.00;97516.44;5035113;28;20549;-71
2023/06/09 03:42:42;;;;;;;14.10;10.68;;;13.90;99.90;;;12.79;100.00;97514.16;5035637;28;20052;-71
2023/06/09 03:45:09;;;;;;;12.20;9.90;;;13.90;99.90;;;12.67;100.00;97509.59;5035895;28;20049;-71
2023/06/09 03:47:36;;;;;;;17.90;10.60;;;13.80;99.90;;;12.70;100.00;97510.28;5034687;28;20045;-71
2023/06/09 03:50:04;;;;;;;13.20;11.55;;;13.70;99.90;;;12.66;100.00;97516.56;5034970;28;20049;-71
2023/06/09 03:52:32;;;;;;;12.43;11.13;;;13.70;99.90;;;12.66;100.00;97516.56;5035792;28;20060;-71
2023/06/09 03:54:59;;;;;;;12.50;10.75;;;13.70;99.90;;;12.69;100.00;97526.81;5024160;28;20513;-70
2023/06/09 03:57:26;;;;;;;12.38;11.07;;;13.70;99.90;;;12.71;100.00;97522.38;5036260;28;20041;-71
2023/06/09 03:59:54;;;;;;;12.82;11.40;;;13.70;99.90;;;12.84;100.00;97529.53;5037676;28;20073;-71
2023/06/09 04:02:21;;;;;;;12.45;10.43;;;13.80;99.90;;;12.83;100.00;97540.88;5035268;28;20057;-71
2023/06/09 04:04:48;;;;;;;14.48;12.95;;;13.80;99.90;;;13.00;100.00;97540.00;5036141;28;20053;-71
2023/06/09 04:07:15;;;;;;;14.32;12.02;;;13.90;99.90;;;12.99;100.00;97536.53;5027800;28;20057;-71
2023/06/09 04:09:42;;;;;;;14.88;13.25;;;13.80;99.90;;;13.02;100.00;97538.16;5042983;28;20567;-71
2023/06/09 04:12:09;;;;;;;19.23;14.27;;;13.90;99.90;;;13.04;100.00;97534.53;5038530;28;20045;-70
2023/06/09 04:14:36;;;;;;;15.55;12.75;;;14.00;99.90;;;13.16;100.00;97533.91;5034179;28;20590;-71
2023/06/09 04:17:04;;;;;;;15.20;13.70;;;14.00;99.90;;;13.23;100.00;97539.63;5034142;28;20159;-70
2023/06/09 04:19:31;;;;;;;15.85;14.15;;;14.00;99.90;;;13.26;100.00;97538.63;5034596;28;20069;-71
2023/06/09 04:22:07;;;;;;;15.00;13.32;;;14.00;99.90;;;13.38;100.00;97543.19;5034348;28;20056;-71
2023/06/09 04:24:34;;;;;;;14.65;13.15;;;14.10;99.90;;;13.42;100.00;97536.03;5058547;28;20127;-71
2023/06/09 04:27:03;;;;;;;14.15;12.75;;;14.20;99.90;;;13.48;100.00;97540.91;5037525;28;20520;-71
2023/06/09 04:29:33;;;;;;;13.60;12.25;;;14.20;99.90;;;13.55;100.00;97542.28;5035942;28;20106;-71
2023/06/09 04:32:01;;;;;;;12.98;11.35;;;14.30;99.90;;;13.68;100.00;97538.03;5037890;28;20053;-71
2023/06/09 04:34:37;;;;;;;14.50;11.65;;;14.40;99.90;;;13.80;100.00;97531.31;5050046;28;20057;-72
2023/06/09 04:37:08;;;;;;;13.38;11.68;;;14.40;99.90;;;13.86;100.00;97532.72;5036547;28;20115;-71
2023/06/09 04:39:35;;;;;;;13.30;11.75;;;14.50;99.90;;;13.87;100.00;97522.22;5035544;28;20045;-71
2023/06/09 04:42:04;;;;;;;15.93;12.00;;;14.60;99.90;;;13.96;100.00;97513.03;5033790;28;20053;-71
2023/06/09 04:44:32;;;;;;;12.95;11.60;;;14.60;99.90;;;14.11;100.00;97508.66;5033442;28;20049;-71
2023/06/09 04:47:02;;;;;;;12.68;11.30;;;14.70;99.90;;;14.02;100.00;97500.44;5034005;28;20095;-70
2023/06/09 04:49:31;;;;;;;12.30;10.52;;;14.80;99.90;;;14.16;100.00;97506.63;5036678;28;20136;-71
2023/06/09 04:51:59;;;;;;;13.32;10.20;;;14.80;99.90;;;14.21;100.00;97500.22;5049956;28;20049;-70
2023/06/09 04:54:28;;;;;;;12.98;10.45;;;14.90;99.90;;;14.30;100.00;97504.06;5042360;28;20053;-71
2023/06/09 04:56:58;;;;;;;13.35;10.32;;;15.00;99.90;;;14.40;100.00;97499.13;5047150;28;20049;-70
2023/06/09 04:59:25;;;;;;;11.15;9.98;;;15.10;99.90;;;14.41;100.00;97492.97;5036026;28;20057;-71
2023/06/09 05:01:53;;;;;;;11.45;10.25;;;15.20;99.90;;;14.55;100.00;97489.56;5038536;28;20106;-71
2023/06/09 05:04:20;;;;;;;11.77;10.50;;;15.30;99.90;;;14.54;100.00;97483.50;5038046;28;20843;-70
2023/06/09 05:06:48;;;;;;;11.75;10.15;;;15.30;99.90;;;14.65;100.00;97477.66;5035642;28;20500;-70
2023/06/09 05:09:15;;;;;;;12.52;10.80;;;15.40;99.90;;;14.71;100.00;97469.44;5030197;28;20356;-71
2023/06/09 05:11:42;;;;;;;11.55;10.07;;;15.40;99.90;;;14.81;100.00;97470.56;5032760;28;20060;-70
2023/06/09 05:14:09;;;;;;;10.20;9.15;;;15.50;99.90;;;14.88;100.00;97462.34;5032359;28;20076;-70
2023/06/09 05:16:37;;;;;;;12.77;9.70;;;15.50;99.90;;;14.94;100.00;97456.72;5031638;28;20127;-71
2023/06/09 05:19:06;;;;;;;11.18;9.70;;;15.60;99.90;;;15.06;100.00;97463.81;5034262;28;20052;-71
2023/06/09 05:21:34;;;;;;;11.65;9.23;;;15.70;99.90;;;15.09;100.00;97463.59;5038132;28;20525;-71
2023/06/09 05:24:01;;;;;;;10.88;9.13;;;15.80;99.90;;;15.19;100.00;97448.16;5034869;28;20111;-71
2023/06/09 05:26:29;;;;;;;12.52;9.60;;;15.80;99.90;;;15.36;100.00;97447.13;5036160;28;20102;-70
2023/06/09 05:28:56;;;;;;;10.02;8.43;;;16.00;99.90;;;15.53;100.00;97439.03;5033614;28;20045;-71
2023/06/09 05:31:23;;;;;;;10.60;9.15;;;16.00;99.90;;;15.47;100.00;97434.19;5040798;28;20080;-71
2023/06/09 05:33:50;;;;;;;10.50;9.02;;;16.10;99.90;;;15.52;100.00;97441.75;5038162;28;20045;-71
2023/06/09 05:36:18;;;;;;;12.38;9.60;;;16.20;99.90;;;15.61;100.00;97439.34;5035306;28;20072;-71
2023/06/09 05:38:45;;;;;;;10.90;8.63;;;16.30;99.90;;;15.67;100.00;97433.72;5036289;28;20048;-71
2023/06/09 05:41:14;;;;;;;11.23;8.23;;;16.30;99.90;;;15.65;100.00;97419.91;5032272;28;20049;-70
2023/06/09 05:43:41;;;;;;;13.27;9.48;;;16.30;99.90;;;15.95;100.00;97423.25;5065092;28;20049;-71
2023/06/09 05:46:09;;;;;;;10.38;8.40;;;16.40;99.90;;;15.87;100.00;97432.47;5037719;28;20611;-71
2023/06/09 05:48:36;;;;;;;9.52;8.45;;;16.50;99.90;;;16.03;100.00;97416.56;5035974;28;20124;-70
2023/06/09 05:51:03;;;;;;;12.05;8.60;;;16.60;99.90;;;16.27;100.00;97413.22;5035617;28;20379;-70
2023/06/09 05:53:32;;;;;;;7.72;6.38;;;16.70;99.90;;;16.41;100.00;97410.47;5038427;28;20080;-70
2023/06/09 05:56:00;;;;;;;8.02;6.88;;;16.80;99.90;;;16.39;100.00;97398.44;5042292;28;20056;-71
2023/06/09 05:58:27;;;;;;;9.38;7.07;;;17.00;99.90;;;16.50;100.00;97399.38;5035510;28;20124;-71
2023/06/09 06:00:57;;;;;;;10.40;7.85;;;17.10;99.90;;;16.48;100.00;97395.19;5033555;28;20049;-70
2023/06/09 06:03:26;;;;;;;8.52;6.72;;;17.20;99.90;;;16.58;100.00;97400.59;5036576;28;20049;-71
2023/06/09 06:05:53;;;;;;;10.18;7.63;;;17.20;99.90;;;16.68;100.00;97386.75;5033632;28;20064;-71
2023/06/09 06:08:20;;;;;;;9.32;6.75;;;17.30;99.90;;;16.84;100.00;97383.94;5037672;28;20594;-71
2023/06/09 06:10:48;;;;;;;8.23;7.07;;;17.30;99.90;;;16.80;100.00;97374.59;5036652;28;20072;-70
2023/06/09 06:13:15;;;;;;;8.70;7.10;;;17.50;99.90;;;16.84;100.00;97377.84;5035649;28;20057;-71
2023/06/09 06:15:43;;;;;;;8.30;6.75;;;17.50;99.90;;;16.82;100.00;97366.63;5033912;28;20100;-71
2023/06/09 06:18:10;;;;;;;7.50;6.28;;;17.60;99.90;;;17.11;100.00;97377.66;5048994;28;20674;-71
2023/06/09 06:20:36;;;;;;;10.20;6.88;;;17.60;99.90;;;17.16;100.00;97369.47;5034204;28;20077;-71
2023/06/09 06:23:07;;;;;;;10.25;6.95;;;17.70;99.90;;;17.36;100.00;97376.72;5038567;28;20144;-70
2023/06/09 06:25:41;;;;;;;8.45;7.13;;;17.90;99.90;;;17.53;100.00;97368.41;5035467;28;20163;-70
2023/06/09 06:28:11;;;;;;;8.15;6.60;;;18.00;99.90;;;17.49;100.00;97371.38;5034591;28;20102;-70
2023/06/09 06:30:38;;;;;;;8.07;6.78;;;18.20;99.90;;;17.68;100.00;97370.88;5038885;28;20502;-70
2023/06/09 06:33:07;;;;;;;8.68;6.63;;;18.20;99.90;;;17.95;100.00;97366.19;5037524;28;20049;-70
2023/06/09 06:35:35;;;;;;;8.18;6.38;;;18.40;99.90;;;18.02;100.00;97363.09;5035847;28;20075;-70
2023/06/09 06:38:02;;;;;;;9.13;6.68;;;18.40;99.90;;;18.12;100.00;97364.06;5037753;28;20072;-70
2023/06/09 06:40:29;;;;;;;7.05;6.22;;;18.60;99.90;;;18.11;100.00;97350.09;5037326;28;20150;-71
2023/06/09 06:42:56;;;;;;;7.05;6.35;;;18.70;99.90;;;18.52;100.00;97358.34;5042336;28;20053;-70
2023/06/09 06:45:26;;;;;;;9.27;6.30;;;18.90;99.90;;;18.50;100.00;97349.75;5038680;28;20111;-70
2023/06/09 06:47:54;;;;;;;8.88;7.15;;;19.00;99.90;;;18.44;100.00;97352.88;5038626;28;20049;-71
2023/06/09 06:50:21;;;;;;;9.18;6.25;;;19.10;99.90;;;18.30;100.00;97352.13;5040636;28;20052;-70
2023/06/09 06:52:52;;;;;;;8.25;6.40;;;19.20;99.90;;;18.33;100.00;97357.16;5038799;28;20053;-70
2023/06/09 06:55:19;;;;;;;9.85;6.28;;;19.20;99.90;;;18.60;100.00;97348.91;5045610;28;20115;-70
2023/06/09 06:57:46;;;;;;;7.93;5.68;;;19.30;99.90;;;18.67;100.00;97353.69;5051753;28;21132;-70
2023/06/09 07:00:15;;;;;;;9.02;6.13;;;19.30;99.90;;;18.99;100.00;97349.34;5036985;28;20088;-70
2023/06/09 07:02:46;;;;;;;8.25;5.95;;;19.30;99.90;;;19.05;100.00;97345.41;5037200;28;20045;-70
2023/06/09 07:05:16;;;;;;;7.97;5.95;;;19.60;99.90;;;19.28;100.00;97340.88;5043656;28;20138;-71
2023/06/09 07:07:43;;;;;;;7.15;5.47;;;19.80;99.90;;;19.56;100.00;97339.44;5039014;28;20139;-70
2023/06/09 07:10:11;;;;;;;7.32;5.57;;;20.00;99.90;;;19.36;100.00;97337.63;5038225;28;20049;-70
2023/06/09 07:12:38;;;;;;;8.45;6.10;;;19.90;99.90;;;19.64;100.00;97342.28;5040254;28;20049;-71
2023/06/09 07:15:06;;;;;;;8.05;6.00;;;20.10;99.90;;;19.56;100.00;97347.34;5038265;28;20057;-71
2023/06/09 07:17:34;;;;;;;9.00;6.45;;;20.20;99.90;;;19.47;100.00;97348.09;5039198;28;20053;-71
2023/06/09 07:20:01;;;;;;;12.05;6.45;;;20.20;99.90;;;19.51;100.00;97353.97;5042865;28;20048;-71
2023/06/09 07:22:28;;;;;;;7.10;6.10;;;20.20;99.90;;;19.64;100.00;97352.81;5039038;28;20111;-70
2023/06/09 07:24:56;;;;;;;8.63;5.95;;;20.30;99.90;;;19.64;100.00;97355.44;5040094;28;20623;-71
2023/06/09 07:27:23;;;;;;;6.47;5.60;;;20.40;99.90;;;20.02;100.00;97359.31;5036218;28;20052;-71
2023/06/09 07:29:50;;;;;;;7.15;5.60;;;20.40;99.90;;;20.29;100.00;97343.94;5036622;28;20052;-70
2023/06/09 07:32:19;;;;;;;7.25;5.22;;;20.70;99.90;;;20.43;100.00;97356.75;5037928;28;20048;-71
2023/06/09 07:34:46;;;;;;;7.32;5.93;;;20.90;99.90;;;20.18;100.00;97350.13;5037096;28;20099;-70
2023/06/09 07:37:13;;;;;;;7.55;5.65;;;20.90;99.90;;;20.49;100.00;97353.59;5043287;28;20053;-71
2023/06/09 07:39:41;;;;;;;7.97;5.55;;;21.00;99.90;;;20.39;100.00;97360.63;5039947;28;20049;-71
2023/06/09 07:42:08;;;;;;;8.20;5.80;;;21.10;99.90;;;20.52;100.00;97355.97;5039298;28;20053;-71
2023/06/09 07:44:35;;;;;;;5.72;4.80;;;21.10;99.90;;;20.56;100.00;97352.13;5054075;28;20057;-70
2023/06/09 07:47:03;;;;;;;6.97;5.90;;;21.20;99.90;;;20.60;100.00;97356.19;5040794;28;20461;-71
2023/06/09 07:49:30;;;;;;;9.25;5.90;;;21.30;99.90;;;20.50;100.00;97347.34;5037468;28;20080;-71
2023/06/09 07:52:04;;;;;;;9.18;5.70;;;21.30;99.90;;;20.51;100.00;97346.41;5042771;28;20041;-71
2023/06/09 07:54:51;;;;;;;10.10;5.10;;;21.30;99.90;;;20.76;100.00;97350.41;5051597;28;20067;-71
2023/06/09 07:57:18;;;;;;;6.85;5.40;;;21.30;99.90;;;21.14;100.00;97343.50;5038318;28;20053;-70
2023/06/09 07:59:47;;;;;;;6.60;5.18;;;21.50;99.90;;;21.02;100.00;97339.34;5053415;28;20125;-71
2023/06/09 08:02:15;;;;;;;6.07;5.38;;;21.70;99.90;;;21.34;100.00;97335.63;5040619;28;20053;-71
2023/06/09 08:04:42;;;;;;;9.25;5.13;;;21.80;99.90;;;21.48;100.00;97332.59;5037247;28;20450;-71
2023/06/09 08:07:10;;;;;;;8.45;4.78;;;21.90;99.90;;;21.13;100.00;97336.56;5039816;28;20390;-71
2023/06/09 08:09:37;;;;;;;5.72;4.97;;;22.00;99.90;;;21.21;100.00;97334.09;5038690;28;20069;-71
2023/06/09 08:12:07;;;;;;;6.35;4.90;;;22.00;99.90;;;21.56;100.00;97332.72;5054305;28;20095;-70
2023/06/09 08:14:35;;;;;;;7.13;4.90;;;22.00;99.90;;;21.61;100.00;97325.22;5069876;28;20132;-71
2023/06/09 08:17:02;;;;;;;9.07;5.13;;;22.20;99.90;;;21.57;100.00;97333.56;5038741;28;20045;-71
2023/06/09 08:19:29;;;;;;;11.45;5.22;;;22.30;99.90;;;21.50;100.00;97333.28;5038817;28;20356;-71
2023/06/09 08:21:57;;;;;;;6.28;4.82;;;22.30;99.90;;;21.39;100.00;97336.03;5038938;28;20053;-71
2023/06/09 08:24:27;;;;;;;7.90;4.72;;;22.30;99.90;;;21.97;100.00;97328.06;5040052;28;20453;-71
2023/06/09 08:26:56;;;;;;;8.95;4.60;;;22.50;99.90;;;21.93;100.00;97319.59;5039392;28;20081;-71
2023/06/09 08:29:23;;;;;;;5.57;4.22;;;22.60;99.90;;;22.13;100.00;97324.84;5036772;28;20061;-71
2023/06/09 08:31:50;;;;;;;5.57;4.63;;;22.70;99.90;;;22.16;100.00;97318.44;5038817;28;20132;-71
2023/06/09 08:34:17;;;;;;;5.97;4.93;;;22.80;99.90;;;22.52;100.00;97322.06;5038002;28;20452;-71
2023/06/09 08:36:45;;;;;;;5.78;4.60;;;22.80;99.90;;;23.13;100.00;97307.41;5037605;28;20866;-71
2023/06/09 08:39:12;;;;;;;6.10;4.50;;;23.10;99.90;;;23.95;100.00;97306.25;5037492;28;20121;-71
2023/06/09 08:41:42;;;;;;;6.75;4.57;;;23.50;99.90;;;23.97;100.00;97298.13;5037001;28;20051;-71
2023/06/09 08:44:11;;;;;;;6.38;4.35;;;23.90;99.90;;;24.12;100.00;97296.56;5041676;28;20165;-71
2023/06/09 08:46:40;;;;;;;5.63;4.30;;;23.90;99.90;;;24.19;100.00;97299.44;5054960;28;20045;-71
2023/06/09 08:49:07;;;;;;;6.10;3.92;;;24.00;99.90;;;24.58;100.00;97291.84;5066332;28;20457;-72
2023/06/09 08:51:37;;;;;;;4.80;3.63;;;24.20;99.90;;;24.82;100.00;97292.91;5043246;28;20080;-71
2023/06/09 08:54:06;;;;;;;4.68;3.63;;;24.60;99.90;;;26.31;100.00;97286.59;5035021;28;20110;-72
2023/06/09 08:56:33;;;;;;;5.65;3.60;;;25.00;99.90;;;25.10;100.00;97290.81;5035141;28;20407;-71
2023/06/09 08:59:00;;;;;;;5.13;3.55;;;25.60;99.90;;;25.25;100.00;97283.06;5036704;28;20045;-71
2023/06/09 09:01:27;;;;;;;5.15;3.08;;;25.70;99.90;;;25.59;100.00;97290.03;5051456;28;20060;-72
2023/06/09 09:03:55;;;;;;;4.38;3.20;;;26.00;99.90;;;25.24;100.00;97278.75;5034445;28;20059;-73
2023/06/09 09:06:22;;;;;;;5.03;2.92;;;26.40;99.80;;;25.24;100.00;97287.53;5032927;28;20420;-74
2023/06/09 09:08:50;;;;;;;5.28;2.88;;;26.70;99.60;;;26.65;100.00;97273.00;5049413;28;20144;-71
2023/06/09 09:11:17;;;;;;;4.20;3.00;;;27.00;99.50;;;25.96;100.00;97270.91;5032510;28;20107;-72
2023/06/09 09:13:48;;;;;;;4.15;2.75;;;27.50;98.00;;;25.93;100.00;97287.19;5034320;28;20126;-72
2023/06/09 09:16:15;;;;;;;4.60;2.40;;;27.80;97.30;;;26.46;100.00;97284.91;5037001;28;20056;-71
2023/06/09 09:18:47;;;;;;;4.13;2.60;;;28.00;95.70;;;27.39;100.00;97273.38;5036378;28;20580;-72
2023/06/09 09:21:23;;;;;;;4.65;2.50;;;28.40;96.40;;;28.11;100.00;97267.56;5033168;28;20048;-71
2023/06/09 09:24:04;;;;;;;4.22;2.10;;;29.00;95.60;;;27.50;100.00;97280.94;5035387;28;20045;-72
2023/06/09 09:26:32;;;;;;;3.67;1.90;;;29.40;93.70;;;28.30;100.00;97279.50;5041792;28;20049;-72
2023/06/09 09:29:06;;;;;;;3.72;1.88;;;29.80;93.10;;;27.12;100.00;97280.06;5041816;28;20073;-73
2023/06/09 09:31:39;;;;;;;4.07;2.20;;;29.90;90.90;;;27.24;100.00;97273.34;5034619;28;20520;-72
2023/06/09 09:34:13;;;;;;;4.22;2.13;;;29.60;90.20;;;27.66;100.00;97273.81;5050376;28;20053;-72
2023/06/09 09:36:42;;;;;;;3.22;1.98;;;29.60;90.10;;;28.53;100.00;97268.78;5052315;28;20142;-72
2023/06/09 09:39:10;;;;;;;4.22;2.10;;;30.00;90.20;;;28.11;100.00;97261.41;5033508;28;20052;-72
2023/06/09 09:41:36;;;;;;;3.47;1.95;;;30.20;88.70;;;28.01;100.00;97279.50;5033254;28;20147;-72
2023/06/09 09:44:06;;;;;;;2.97;1.85;;;30.10;86.60;;;27.97;100.00;97272.91;5038066;28;20166;-72
2023/06/09 09:46:39;;;;;;;2.95;2.10;;;30.20;85.20;;;27.81;100.00;97272.03;5040503;28;20099;-73
2023/06/09 09:49:07;;;;;;;2.63;1.60;;;30.30;84.90;;;28.36;99.83;97261.94;5033984;28;20045;-72
2023/06/09 09:51:37;;;;;;;3.13;1.98;;;30.10;84.50;;;28.94;99.73;97264.69;5036143;28;20860;-72
2023/06/09 09:54:05;;;;;;;7.03;2.40;;;30.10;84.70;;;29.29;95.72;97259.53;5051127;28;20045;-72
2023/06/09 09:56:33;;;;;;;3.97;1.67;;;30.30;83.50;;;28.65;99.47;97263.78;5035474;28;20073;-72
2023/06/09 09:59:02;;;;;;;2.95;1.95;;;30.40;83.80;;;29.15;95.72;97264.75;5038226;28;20122;-72
2023/06/09 10:01:30;;;;;;;2.75;2.00;;;30.60;82.50;;;28.93;95.42;97260.38;5043433;28;20060;-72
2023/06/09 10:03:57;;;;;;;3.83;1.85;;;30.30;81.60;;;28.29;96.77;97258.38;5036378;28;20049;-72
2023/06/09 10:06:29;;;;;;;6.60;2.10;;;30.00;81.40;;;28.92;95.06;97259.56;5031671;28;20060;-72
2023/06/09 10:08:58;;;;;;;2.95;2.08;;;29.90;82.30;;;28.93;93.94;97252.38;5036918;28;20053;-72
2023/06/09 10:11:34;;;;;;;3.28;1.73;;;30.20;81.70;;;29.18;95.60;97255.53;5037266;28;20050;-73
2023/06/09 10:14:02;;;;;;;5.22;1.50;;;30.20;82.50;;;28.19;94.53;97261.31;5035811;28;20076;-73
2023/06/09 10:16:30;;;;;;;3.33;1.95;;;30.40;80.40;;;29.67;95.43;97256.56;5050373;28;20160;-72